METAR Data
IDs: Format: Raw Decoded Include TAF

Data at: 1936 UTC 22 Sep 2020

METAR for:KFRR (Front Royal/Warren C, VA, US)
Text:KFRR 221935Z AUTO 31004KT 10SM CLR 21/07 A3009 RMK AO1
Temperature: 21.0°C ( 70°F)
Dewpoint: 7.0°C ( 45°F) [RH = 40%]
Pressure (altimeter):30.09 inches Hg (1019.0 mb)
Winds:from the NW (310 degrees) at 5 MPH (4 knots; 2.1 m/s)
Visibility:10 or more sm (16+ km)
Ceiling:at least 12,000 feet AGL
Clouds:sky clear below 12,000 feet AGL
QC Flag:automated observation with no human augmentation